Airfield :
LOGIN :

Register | Disclaimer

   EN    FR    IT 

 










Legend :    VFR   Marginal VFR   IFR   Intensive IFR   Very Intensive IFR
Visi :
Ceiling :
>= 8 km
>= 3000ft
5 to 8 km
1000 to 3000 ft
1500m to 5 km
500 to 1000 ft
800 to 1500m
200 to 500 ft
< 800m
< 200 ft
Symbols :   Thunderstorms  Fog  Heavy snow  Heavy precipitations  Wind > 20 kt
SIGMETs :     Misc.  Thunderstorms  Icing  Turbulence  Mountain Waves  Volcanic Ashes






- Airport Elevation : 1708 ft
- IATA code : SJJ


LQSA - Sarajevo

CURRENT METAR :
  • 071030Z VRB03KT CAVOK 17/M11 Q1029

EXPIRED METARs :
  • 071000Z 05006KT 010V120 CAVOK 16/M12 Q1029
  • 070930Z 03004KT 340V110 CAVOK 15/M09 Q1029
  • 070900Z 05004KT 340V110 CAVOK 14/M07 Q1030
  • 070830Z 20003KT 150V260 CAVOK 12/M04 Q1030
  • 070800Z VRB02KT CAVOK 10/M04 Q1030

TAF TAF LQSA
Valid from the 07 at 06:00 until the 08 at 06:00 UTC


070607Z 0706/0806 03005KT CAVOK TX20/0714Z TNM01/0803Z
PROB40
TEMPO 0710/0718 09012KT



MET'MAP, your aeronautical weather chart ! - Copyright ORBIFLY December 2007 - Disclaimer

ORBIFLY MET'MAP TEAM :

Programming & Development : Alexandra Zaïnal
Concept & original design : Baudouin d'Aumeries
Assistance for programming : Marc-Olivier Méhu
Technical & hardware support : Manuel Goepfert

Contact : metmap@orbifly.com




SOURCES & CREDITS :

   NOAA